createdAt,value
2022-10-15T00:01:22.379Z,1.03
2022-10-15T00:03:49.303Z,1.00
2022-10-15T00:06:19.118Z,0.93
2022-10-15T00:08:47.039Z,0.77
2022-10-15T00:11:23.352Z,0.87
2022-10-15T00:13:52.436Z,0.87
2022-10-15T00:16:21.548Z,0.80
2022-10-15T00:18:49.581Z,0.70
2022-10-15T00:21:18.148Z,1.03
2022-10-15T00:23:45.883Z,0.60
2022-10-15T00:26:18.879Z,0.60
2022-10-15T00:28:46.879Z,0.50
2022-10-15T00:31:17.000Z,0.47
2022-10-15T00:33:50.267Z,0.70
2022-10-15T00:36:25.548Z,0.60
2022-10-15T00:38:53.032Z,0.70
2022-10-15T00:41:31.209Z,0.57
2022-10-15T00:44:21.207Z,0.50
2022-10-15T00:46:52.169Z,0.30
2022-10-15T00:49:42.836Z,0.40
2022-10-15T00:52:15.418Z,0.40
2022-10-15T00:54:46.360Z,0.40
2022-10-15T00:57:14.248Z,0.33
2022-10-15T00:59:51.863Z,0.43
2022-10-15T01:02:20.520Z,0.57
2022-10-15T01:04:48.220Z,0.30
2022-10-15T01:09:46.692Z,0.40
2022-10-15T01:12:58.765Z,0.50
2022-10-15T01:15:36.642Z,0.50
2022-10-15T01:21:08.057Z,0.60
2022-10-15T01:24:01.044Z,0.60
2022-10-15T01:26:33.453Z,0.70
2022-10-15T01:29:21.646Z,0.50
2022-10-15T01:31:48.393Z,0.90
2022-10-15T01:34:33.482Z,0.43
2022-10-15T01:37:15.273Z,0.87
2022-10-15T01:39:48.823Z,0.50
2022-10-15T01:42:51.264Z,0.43
2022-10-15T01:45:25.377Z,0.53
2022-10-15T01:48:13.167Z,1.00
2022-10-15T01:51:01.131Z,0.57
2022-10-15T01:53:29.286Z,0.80
2022-10-15T01:55:59.299Z,0.80
2022-10-15T01:58:29.858Z,0.80
2022-10-15T02:00:58.949Z,0.50
2022-10-15T02:03:26.632Z,0.53
2022-10-15T02:06:02.766Z,0.53
2022-10-15T02:08:45.989Z,0.70
2022-10-15T02:11:17.008Z,0.83
2022-10-15T02:14:05.390Z,0.70
2022-10-15T02:16:44.026Z,0.70
2022-10-15T02:19:23.568Z,1.07
2022-10-15T02:21:59.451Z,0.77
2022-10-15T02:24:32.859Z,0.87
2022-10-15T02:27:03.011Z,0.90
2022-10-15T02:29:35.008Z,0.53
2022-10-15T02:32:05.880Z,0.70
2022-10-15T02:34:34.461Z,0.63
2022-10-15T02:37:04.105Z,0.70
2022-10-15T02:39:31.082Z,0.80
2022-10-15T02:41:59.343Z,0.80
2022-10-15T02:44:26.264Z,0.70
2022-10-15T02:47:12.170Z,0.60
2022-10-15T02:49:39.641Z,1.00
2022-10-15T02:52:07.203Z,0.83
2022-10-15T02:54:34.197Z,1.27
2022-10-15T02:57:01.014Z,0.57
2022-10-15T02:59:27.987Z,1.00
2022-10-15T03:01:56.043Z,0.73
2022-10-15T03:04:24.080Z,0.60
2022-10-15T03:06:51.086Z,1.10
2022-10-15T03:09:18.528Z,1.07
2022-10-15T03:11:45.460Z,1.03
2022-10-15T03:14:49.241Z,0.73
2022-10-15T03:17:16.231Z,0.60
2022-10-15T03:19:43.426Z,0.73
2022-10-15T03:22:10.901Z,1.27
2022-10-15T03:24:47.913Z,1.27
2022-10-15T03:27:19.163Z,1.00
2022-10-15T03:29:45.940Z,1.00
2022-10-15T03:32:34.235Z,0.80
2022-10-15T03:35:03.609Z,0.70
2022-10-15T03:37:32.637Z,1.20
2022-10-15T03:39:59.364Z,1.00
2022-10-15T03:42:27.551Z,1.13
2022-10-15T03:44:54.398Z,0.90
2022-10-15T03:47:21.165Z,1.20
2022-10-15T03:49:49.555Z,0.83
2022-10-15T03:52:16.819Z,0.90
2022-10-15T03:54:45.775Z,0.80
2022-10-15T03:57:15.177Z,0.70
2022-10-15T03:59:49.743Z,0.80
2022-10-15T04:02:18.113Z,0.97
2022-10-15T04:04:44.981Z,0.60
2022-10-15T04:07:12.092Z,1.00
2022-10-15T04:09:39.084Z,0.93
2022-10-15T04:12:25.175Z,0.70
2022-10-15T04:15:11.042Z,1.17
2022-10-15T04:17:46.719Z,0.90
2022-10-15T04:20:13.910Z,1.43
2022-10-15T04:22:43.445Z,0.77
2022-10-15T04:25:10.325Z,0.60
2022-10-15T04:27:37.100Z,0.40
2022-10-15T04:30:14.478Z,0.77
2022-10-15T04:32:54.482Z,0.80
2022-10-15T04:35:21.645Z,0.80
2022-10-15T04:38:07.342Z,1.17
2022-10-15T04:41:06.879Z,0.50
2022-10-15T04:43:56.818Z,0.50
2022-10-15T04:46:23.695Z,1.03
2022-10-15T04:48:53.140Z,0.63
2022-10-15T04:51:21.648Z,1.03
2022-10-15T04:54:12.632Z,0.60
2022-10-15T04:56:54.516Z,1.10
2022-10-15T04:59:21.369Z,0.70
2022-10-15T05:02:11.642Z,0.87
2022-10-15T05:04:38.711Z,0.90
2022-10-15T05:07:05.603Z,0.63
2022-10-15T05:09:35.623Z,0.90
2022-10-15T05:12:03.913Z,0.70
2022-10-15T05:14:30.900Z,0.90
2022-10-15T05:17:13.986Z,0.97
2022-10-15T05:19:42.731Z,0.50
2022-10-15T05:22:16.862Z,0.67
2022-10-15T05:24:50.008Z,0.70
2022-10-15T05:27:33.928Z,0.60
2022-10-15T05:30:02.308Z,0.60
2022-10-15T05:33:00.412Z,0.83
2022-10-15T05:35:27.246Z,0.80
2022-10-15T05:38:04.660Z,0.93
2022-10-15T05:40:31.474Z,1.13
2022-10-15T05:43:06.624Z,1.00
2022-10-15T05:45:56.039Z,1.13
2022-10-15T05:48:23.307Z,1.48
2022-10-15T05:50:50.035Z,1.53
2022-10-15T05:53:23.037Z,1.03
2022-10-15T05:55:54.321Z,1.15
2022-10-15T05:58:21.175Z,0.82
2022-10-15T06:00:56.420Z,0.88
2022-10-15T06:03:24.169Z,0.90
2022-10-15T06:05:51.026Z,1.05
2022-10-15T06:08:18.437Z,1.17
2022-10-15T06:10:45.188Z,0.80
2022-10-15T06:13:12.811Z,1.73
2022-10-15T06:15:41.215Z,1.15
2022-10-15T06:18:11.001Z,1.10
2022-10-15T06:20:38.512Z,0.70
2022-10-15T06:23:05.773Z,1.40
2022-10-15T06:25:33.777Z,1.17
2022-10-15T06:28:05.785Z,1.20
2022-10-15T06:30:41.541Z,1.30
2022-10-15T06:33:08.800Z,2.13
2022-10-15T06:35:36.076Z,1.55
2022-10-15T06:38:05.145Z,2.03
2022-10-15T06:40:32.322Z,1.42
2022-10-15T06:43:10.359Z,2.40
2022-10-15T06:45:39.389Z,1.83
2022-10-15T06:48:31.013Z,1.95
2022-10-15T06:51:01.460Z,2.15
2022-10-15T06:53:46.985Z,1.35
2022-10-15T06:56:13.748Z,1.90
2022-10-15T06:58:43.424Z,2.20
2022-10-15T07:01:10.477Z,2.05
2022-10-15T07:03:39.059Z,2.67
2022-10-15T07:06:08.588Z,2.15
2022-10-15T07:08:36.400Z,2.37
2022-10-15T07:11:05.497Z,2.28
2022-10-15T07:13:32.438Z,2.85
2022-10-15T07:16:08.713Z,2.47
2022-10-15T07:18:53.708Z,2.47
2022-10-15T07:21:39.027Z,2.85
2022-10-15T07:24:06.299Z,2.67
2022-10-15T07:26:52.101Z,2.80
2022-10-15T07:29:18.916Z,4.07
2022-10-15T07:31:46.920Z,3.50
2022-10-15T07:34:16.445Z,3.13
2022-10-15T07:36:43.136Z,2.17
2022-10-15T07:39:10.403Z,2.47
2022-10-15T07:41:37.087Z,2.65
2022-10-15T07:44:22.742Z,2.45
2022-10-15T07:47:08.129Z,2.57
2022-10-15T07:52:19.141Z,1.30
2022-10-15T07:54:45.861Z,1.23
2022-10-15T07:57:19.756Z,1.70
2022-10-15T08:00:24.498Z,2.10
2022-10-15T08:02:51.293Z,2.13
2022-10-15T08:05:19.978Z,2.25
2022-10-15T08:07:46.812Z,1.75
2022-10-15T08:10:32.999Z,2.85
2022-10-15T08:12:59.768Z,3.08
2022-10-15T08:15:26.575Z,4.50
2022-10-15T08:17:53.334Z,3.33
2022-10-15T08:20:20.051Z,3.20
2022-10-15T08:22:46.800Z,3.28
2022-10-15T08:25:13.528Z,4.18
2022-10-15T08:27:40.350Z,3.63
2022-10-15T08:30:07.710Z,3.00
2022-10-15T08:32:34.431Z,3.80
2022-10-15T08:35:01.135Z,3.70
2022-10-15T08:37:32.472Z,2.40
2022-10-15T08:39:59.313Z,2.50
2022-10-15T08:42:35.989Z,2.03
2022-10-15T08:45:10.836Z,2.70
2022-10-15T08:47:46.493Z,2.58
2022-10-15T08:50:51.798Z,2.28
2022-10-15T08:53:23.842Z,1.52
2022-10-15T08:55:57.964Z,2.10
2022-10-15T08:58:46.764Z,1.55
2022-10-15T09:01:24.754Z,1.23
2022-10-15T09:04:40.657Z,1.33
2022-10-15T09:07:19.443Z,0.93
2022-10-15T09:09:54.059Z,0.88
2022-10-15T09:12:35.824Z,1.33
2022-10-15T09:15:05.444Z,1.48
2022-10-15T09:17:33.988Z,1.00
2022-10-15T09:20:05.760Z,0.90
2022-10-15T09:22:34.388Z,0.77
2022-10-15T09:28:09.399Z,0.67
2022-10-15T09:30:49.568Z,1.00
2022-10-15T09:33:48.564Z,0.63
2022-10-15T09:36:36.855Z,0.70
2022-10-15T09:39:31.441Z,0.60
2022-10-15T09:42:26.401Z,0.90
2022-10-15T09:44:57.830Z,1.30
2022-10-15T09:47:31.585Z,1.25
2022-10-15T09:50:06.457Z,1.10
2022-10-15T09:52:54.737Z,0.82
2022-10-15T09:55:33.457Z,0.63
2022-10-15T09:58:11.829Z,0.80
2022-10-15T10:01:05.870Z,0.80
2022-10-15T10:03:39.038Z,0.50
2022-10-15T10:06:13.888Z,0.77
2022-10-15T10:09:00.985Z,1.92
2022-10-15T10:11:45.500Z,0.73
2022-10-15T10:14:25.638Z,0.45
2022-10-15T10:17:19.091Z,0.40
2022-10-15T10:20:02.825Z,0.30
2022-10-15T10:22:29.577Z,0.30
2022-10-15T10:24:56.337Z,0.40
2022-10-15T10:27:27.982Z,0.40
2022-10-15T10:30:01.405Z,0.40
2022-10-15T10:32:31.581Z,0.30
2022-10-15T10:35:01.040Z,0.30
2022-10-15T10:37:29.475Z,0.30
2022-10-15T10:39:58.977Z,0.30
2022-10-15T10:42:33.875Z,0.30
2022-10-15T10:45:24.077Z,0.40
2022-10-15T10:47:50.839Z,0.32
2022-10-15T10:50:35.548Z,0.28
2022-10-15T10:53:23.785Z,0.52
2022-10-15T10:55:52.576Z,0.13
2022-10-15T10:58:27.499Z,0.22
2022-10-15T11:00:55.750Z,0.20
2022-10-15T11:03:32.640Z,0.13
2022-10-15T11:06:27.447Z,0.10
2022-10-15T11:09:21.823Z,0.68
2022-10-15T11:12:16.749Z,0.30
2022-10-15T11:15:12.770Z,0.20
2022-10-15T11:17:54.557Z,0.40
2022-10-15T11:20:56.341Z,0.35
2022-10-15T11:24:01.679Z,0.10
2022-10-15T11:27:10.445Z,0.10
2022-10-15T11:30:02.949Z,0.10
2022-10-15T11:33:06.793Z,0.10
2022-10-15T11:35:54.822Z,0.13
2022-10-15T11:38:53.702Z,0.10
2022-10-15T11:41:49.265Z,0.20
2022-10-15T11:44:43.814Z,0.20
2022-10-15T11:47:36.369Z,0.10
2022-10-15T11:50:18.367Z,0.10
2022-10-15T11:53:14.433Z,0.10
2022-10-15T11:55:49.960Z,0.10
2022-10-15T11:58:42.628Z,0.00
2022-10-15T12:01:17.044Z,0.10
2022-10-15T12:03:55.936Z,0.10
2022-10-15T12:06:26.772Z,0.10
2022-10-15T12:08:56.910Z,0.00
2022-10-15T12:11:30.591Z,0.10
2022-10-15T12:14:41.873Z,0.10
2022-10-15T12:17:45.863Z,0.10
2022-10-15T12:20:17.693Z,0.10
2022-10-15T12:22:47.375Z,0.00
2022-10-15T12:25:34.304Z,0.10
2022-10-15T12:28:09.278Z,0.10
2022-10-15T12:30:37.765Z,0.10
2022-10-15T12:33:36.423Z,0.03
2022-10-15T12:36:19.493Z,0.00
2022-10-15T12:39:08.908Z,0.00
2022-10-15T12:41:47.086Z,0.10
2022-10-15T12:44:22.985Z,0.10
2022-10-15T12:46:51.391Z,0.10
2022-10-15T12:49:27.232Z,0.08
2022-10-15T12:51:56.352Z,0.03
2022-10-15T12:54:39.623Z,0.10
2022-10-15T12:57:44.988Z,0.10
2022-10-15T13:00:28.657Z,0.10
2022-10-15T13:03:02.590Z,0.10
2022-10-15T13:05:31.998Z,0.20
2022-10-15T13:08:01.456Z,0.40
2022-10-15T13:10:29.939Z,0.20
2022-10-15T13:13:03.781Z,0.20
2022-10-15T13:15:32.625Z,0.20
2022-10-15T13:18:04.963Z,0.30
2022-10-15T13:20:36.986Z,0.40
2022-10-15T13:23:18.933Z,0.40
2022-10-15T13:26:25.655Z,0.20
2022-10-15T13:31:45.006Z,0.20
2022-10-15T13:34:32.065Z,0.20
2022-10-15T13:37:02.077Z,0.28
2022-10-15T13:39:51.107Z,0.10
2022-10-15T13:42:36.443Z,0.10
2022-10-15T13:45:19.324Z,0.10
2022-10-15T13:47:51.005Z,0.47
2022-10-15T13:50:35.560Z,0.20
2022-10-15T13:53:20.865Z,0.10
2022-10-15T13:55:50.241Z,0.10
2022-10-15T13:58:27.898Z,0.20
2022-10-15T14:01:04.117Z,0.10
2022-10-15T14:03:33.751Z,0.28
2022-10-15T14:06:34.256Z,0.20
2022-10-15T14:09:27.127Z,0.20
2022-10-15T14:12:12.401Z,0.10
2022-10-15T14:14:46.963Z,0.25
2022-10-15T14:17:17.574Z,0.32
2022-10-15T14:20:21.764Z,0.45
2022-10-15T14:22:41.825Z,0.52
2022-10-15T14:25:10.539Z,0.30
2022-10-15T14:27:37.343Z,0.15
2022-10-15T14:30:14.951Z,0.50
2022-10-15T14:32:47.716Z,0.32
2022-10-15T14:35:33.729Z,0.60
2022-10-15T14:38:15.219Z,0.43
2022-10-15T14:40:57.112Z,0.15
2022-10-15T14:46:36.446Z,0.20
2022-10-15T14:49:03.553Z,0.20
2022-10-15T14:51:48.849Z,0.77
2022-10-15T14:54:34.217Z,0.75
2022-10-15T14:57:02.523Z,0.43
2022-10-15T14:59:33.716Z,0.70
2022-10-15T15:02:03.185Z,0.40
2022-10-15T15:04:36.581Z,0.50
2022-10-15T15:07:04.690Z,0.30
2022-10-15T15:09:31.501Z,0.57
2022-10-15T15:11:58.318Z,0.80
2022-10-15T15:14:25.943Z,0.65
2022-10-15T15:16:52.893Z,0.60
2022-10-15T15:19:19.685Z,0.40
2022-10-15T15:21:46.747Z,0.50
2022-10-15T15:24:32.277Z,0.45
2022-10-15T15:26:59.045Z,0.65
2022-10-15T15:29:25.850Z,0.30
2022-10-15T15:31:52.698Z,0.40
2022-10-15T15:34:19.407Z,0.98
2022-10-15T15:36:46.177Z,0.85
2022-10-15T15:39:12.901Z,0.40
2022-10-15T15:41:58.398Z,0.30
2022-10-15T15:44:25.189Z,0.50
2022-10-15T15:46:55.169Z,0.50
2022-10-15T15:49:22.152Z,0.40
2022-10-15T15:51:48.923Z,0.43
2022-10-15T15:54:15.738Z,0.50
2022-10-15T15:59:14.270Z,0.47
2022-10-15T16:01:41.041Z,0.30
2022-10-15T16:04:07.798Z,0.50
2022-10-15T16:06:34.557Z,0.55
2022-10-15T16:09:01.403Z,0.70
2022-10-15T16:11:28.329Z,0.73
2022-10-15T16:13:55.029Z,1.15
2022-10-15T16:16:21.721Z,0.80
2022-10-15T16:18:48.465Z,1.10
2022-10-15T16:21:21.540Z,1.02
2022-10-15T16:23:48.466Z,0.88
2022-10-15T16:26:15.322Z,0.90
2022-10-15T16:28:42.166Z,1.00
2022-10-15T16:31:29.531Z,0.73
2022-10-15T16:33:58.160Z,0.80
2022-10-15T16:36:25.191Z,0.68
2022-10-15T16:38:52.078Z,0.88
2022-10-15T16:41:19.575Z,0.60
2022-10-15T16:43:50.225Z,1.58
2022-10-15T16:46:18.692Z,1.40
2022-10-15T16:48:45.844Z,0.68
2022-10-15T16:51:15.539Z,0.82
2022-10-15T16:53:44.032Z,1.02
2022-10-15T16:56:14.512Z,0.93
2022-10-15T16:58:41.716Z,1.40
2022-10-15T17:01:12.659Z,1.55
2022-10-15T17:03:40.728Z,1.40
2022-10-15T17:06:10.932Z,1.10
2022-10-15T17:08:44.168Z,0.57
2022-10-15T17:11:12.698Z,0.95
2022-10-15T17:13:39.417Z,0.70
2022-10-15T17:16:11.045Z,0.73
2022-10-15T17:18:38.405Z,0.88
2022-10-15T17:21:08.998Z,1.83
2022-10-15T17:23:35.826Z,1.42
2022-10-15T17:26:08.720Z,1.77
2022-10-15T17:28:35.822Z,1.70
2022-10-15T17:31:11.533Z,1.73
2022-10-15T17:33:40.402Z,1.25
2022-10-15T17:36:10.184Z,1.17
2022-10-15T17:38:37.374Z,3.92
2022-10-15T17:41:13.499Z,3.92
2022-10-15T17:43:40.638Z,1.80
2022-10-15T17:46:11.396Z,1.58
2022-10-15T17:48:58.469Z,1.45
2022-10-15T17:51:30.789Z,3.67
2022-10-15T17:53:59.971Z,3.63
2022-10-15T17:56:29.553Z,3.30
2022-10-15T17:58:57.107Z,2.72
2022-10-15T18:01:39.434Z,1.50
2022-10-15T18:04:12.989Z,1.83
2022-10-15T18:06:44.762Z,3.30
2022-10-15T18:09:21.700Z,3.97
2022-10-15T18:11:49.121Z,2.97
2022-10-15T18:14:16.119Z,2.33
2022-10-15T18:17:01.864Z,3.17
2022-10-15T18:19:29.078Z,1.70
2022-10-15T18:21:56.400Z,2.03
2022-10-15T18:24:41.824Z,1.60
2022-10-15T18:27:08.669Z,1.40
2022-10-15T18:29:36.122Z,1.27
2022-10-15T18:32:03.101Z,1.00
2022-10-15T18:34:30.417Z,1.02
2022-10-15T18:36:57.526Z,1.83
2022-10-15T18:39:24.943Z,1.65
2022-10-15T18:44:35.771Z,1.73
2022-10-15T18:47:02.722Z,1.30
2022-10-15T18:49:31.029Z,0.60
2022-10-15T18:52:00.388Z,1.20
2022-10-15T18:54:36.439Z,0.98
2022-10-15T18:57:04.320Z,1.38
2022-10-15T18:59:31.288Z,1.00
2022-10-15T19:01:58.267Z,1.17
2022-10-15T19:04:25.252Z,1.00
2022-10-15T19:06:53.795Z,1.50
2022-10-15T19:09:29.247Z,1.65
2022-10-15T19:11:57.410Z,1.55
2022-10-15T19:14:28.069Z,1.88
2022-10-15T19:16:56.638Z,1.50
2022-10-15T19:19:24.759Z,1.20
2022-10-15T19:21:53.100Z,1.43
2022-10-15T19:24:21.539Z,1.60
2022-10-15T19:26:49.752Z,1.77
2022-10-15T19:29:16.867Z,2.60
2022-10-15T19:31:48.248Z,2.70
2022-10-15T19:34:15.569Z,2.73
2022-10-15T19:36:46.666Z,3.28
2022-10-15T19:39:16.664Z,3.23
2022-10-15T19:41:45.078Z,2.17
2022-10-15T19:44:14.594Z,2.75
2022-10-15T19:46:41.515Z,2.47
2022-10-15T19:49:26.994Z,1.97
2022-10-15T19:51:53.903Z,1.70
2022-10-15T19:54:20.692Z,1.60
2022-10-15T19:56:47.586Z,1.73
2022-10-15T19:59:14.645Z,2.13
2022-10-15T20:01:41.488Z,1.60
2022-10-15T20:04:08.270Z,2.33
2022-10-15T20:09:23.183Z,1.70
2022-10-15T20:11:49.983Z,1.93
2022-10-15T20:14:16.814Z,1.77
2022-10-15T20:16:43.724Z,1.53
2022-10-15T20:19:12.472Z,1.60
2022-10-15T20:21:39.262Z,1.57
2022-10-15T20:24:06.126Z,1.58
2022-10-15T20:26:33.298Z,1.58
2022-10-15T20:29:00.198Z,1.30
2022-10-15T20:31:32.082Z,1.42
2022-10-15T20:33:59.255Z,1.87
2022-10-15T20:36:27.371Z,1.23
2022-10-15T20:39:13.039Z,1.08
2022-10-15T20:41:59.681Z,1.73
2022-10-15T20:44:26.849Z,1.70
2022-10-15T20:46:59.368Z,1.38
2022-10-15T20:49:35.384Z,1.33
2022-10-15T20:52:04.110Z,1.75
2022-10-15T20:54:31.430Z,1.30
2022-10-15T20:57:16.942Z,1.48
2022-10-15T20:59:43.756Z,1.50
2022-10-15T21:02:10.466Z,1.38
2022-10-15T21:04:37.204Z,1.13
2022-10-15T21:07:04.013Z,0.98
2022-10-15T21:09:30.775Z,1.50
2022-10-15T21:11:57.691Z,1.38
2022-10-15T21:14:24.509Z,0.80
2022-10-15T21:16:51.244Z,1.00
2022-10-15T21:19:18.126Z,1.25
2022-10-15T21:21:44.915Z,0.93
2022-10-15T21:24:12.870Z,1.25
2022-10-15T21:26:39.601Z,1.85
2022-10-15T21:29:11.366Z,1.80
2022-10-15T21:31:38.157Z,1.40
2022-10-15T21:34:04.851Z,0.85
2022-10-15T21:36:31.621Z,0.90
2022-10-15T21:39:04.800Z,1.25
2022-10-15T21:41:33.811Z,0.73
2022-10-15T21:44:01.706Z,0.80
2022-10-15T21:46:30.516Z,0.77
2022-10-15T21:48:58.215Z,1.23
2022-10-15T21:51:28.512Z,0.77
2022-10-15T21:53:56.601Z,0.80
2022-10-15T21:56:23.992Z,1.52
2022-10-15T21:58:52.098Z,0.60
2022-10-15T22:01:21.960Z,0.80
2022-10-15T22:03:50.713Z,0.30
2022-10-15T22:06:19.760Z,0.60
2022-10-15T22:08:46.611Z,0.77
2022-10-15T22:11:17.797Z,0.57
2022-10-15T22:13:47.623Z,0.50
2022-10-15T22:16:15.960Z,0.90
2022-10-15T22:18:43.275Z,0.63
2022-10-15T22:21:21.141Z,0.40
2022-10-15T22:24:00.336Z,0.50
2022-10-15T22:26:30.277Z,0.98
2022-10-15T22:31:43.208Z,0.40
2022-10-15T22:34:10.213Z,0.60
2022-10-15T22:36:36.932Z,1.05
2022-10-15T22:39:06.604Z,0.50
2022-10-15T22:41:36.273Z,0.88
2022-10-15T22:44:03.602Z,0.50
2022-10-15T22:46:34.088Z,1.30
2022-10-15T22:49:01.190Z,0.57
2022-10-15T22:51:28.276Z,0.53
2022-10-15T22:53:56.799Z,0.90
2022-10-15T22:56:24.692Z,0.50
2022-10-15T22:59:10.823Z,0.88
2022-10-15T23:01:38.227Z,1.20
2022-10-15T23:04:06.994Z,0.93
2022-10-15T23:06:36.376Z,0.70
2022-10-15T23:09:05.044Z,0.70
2022-10-15T23:11:34.511Z,0.53
2022-10-15T23:14:07.280Z,0.50
2022-10-15T23:16:37.307Z,0.70
2022-10-15T23:19:07.315Z,0.53
2022-10-15T23:21:37.956Z,0.33
2022-10-15T23:24:06.265Z,0.50
2022-10-15T23:26:33.254Z,0.73
2022-10-15T23:29:01.292Z,0.60
2022-10-15T23:31:33.925Z,0.80
2022-10-15T23:36:46.409Z,0.97
2022-10-15T23:39:16.287Z,0.70
2022-10-15T23:41:43.543Z,0.83
2022-10-15T23:44:10.709Z,0.73
2022-10-15T23:46:56.625Z,0.60
2022-10-15T23:49:23.552Z,0.50
2022-10-15T23:52:09.159Z,0.97
2022-10-15T23:54:35.861Z,0.82
2022-10-15T23:57:02.826Z,0.63
2022-10-15T23:59:29.577Z,0.50
